Terminal Aerodrome Forecast
Issued by NWS Bismarck, ND

Home | Current Version | Previous Version | Graphics & Text | Print | Product List | Glossary On
Versions: 1 2 3 4 5 6 7 8 9 10 11 12 13 14 15 16 17 18 19 20 21 22 23
000
FTUS43 KBIS 251500 AAB
TAFISN
TAF AMD
KISN 251513Z 2515/2612 17006KT 1/2SM SN FZFG VV011
     FM251700 21010KT 2SM -SN OVC009
     FM252100 31015G23KT 5SM -SN OVC012
     FM260000 34018G26KT 6SM -SN BLSN OVC010
     FM260600 34010KT P6SM OVC008=

USA.gov is the U.S. government's official web portal to all federal, state and local government web resources and services.